Main page
METAR-TAF:

METAR-TAF

Airports :

Jackson Municipal Airport

Jackson, Minnesota, United States

latitude: 43-39N, longitude: 094-59W, elevation: 1446 ft

Current weather observation

The report was made 33 minutes ago, at 08:35 UTC
Wind 5 mph from the East/Southeast
Temperature 21°F
Humidity 73%
Pressure 29.97 in. Hg
Visibility: 10 miles
Overcast at a height of 9500 ft

METAR: KMJQ 020835Z AUTO 12004KT 10SM OVC095 M06/M10 A2997 RMK AO2

Time: 03:08 (09:08 UTC)


TAF: missing

Weather observations and forecasts of more than 4000 airports (METAR and TAF reports).

The available stations are represented by yellow and red dots on the map.

Hover mouse over dot to see the name of the station.

Then click to see weather observations and forecasts.

To change the map : click on the green buttons with a black cross to zoom in, on the green button with a dash to zoom out, or on the green arrows for adjacent maps.


METAR-TAF: